createdAt,value
2017-05-29T00:02:08.208Z,11.64
2017-05-29T00:04:37.607Z,10.76
2017-05-29T00:07:05.983Z,11.74
2017-05-29T00:09:34.360Z,11.80
2017-05-29T00:12:02.739Z,11.12
2017-05-29T00:14:31.021Z,11.26
2017-05-29T00:16:59.436Z,13.08
2017-05-29T00:19:26.948Z,13.66
2017-05-29T00:21:55.295Z,11.30
2017-05-29T00:24:23.667Z,11.74
2017-05-29T00:26:51.952Z,12.12
2017-05-29T00:29:20.328Z,12.92
2017-05-29T00:31:48.704Z,12.12
2017-05-29T00:34:17.085Z,12.58
2017-05-29T00:36:45.464Z,10.90
2017-05-29T00:39:13.776Z,10.66
2017-05-29T00:41:42.059Z,10.70
2017-05-29T00:44:10.340Z,10.76
2017-05-29T00:46:38.681Z,9.74
2017-05-29T00:49:07.060Z,10.52
2017-05-29T00:51:35.427Z,11.46
2017-05-29T00:54:04.120Z,12.16
2017-05-29T00:56:32.501Z,13.76
2017-05-29T00:59:00.783Z,14.40
2017-05-29T01:01:29.152Z,15.60
2017-05-29T01:03:57.442Z,16.58
2017-05-29T01:06:25.817Z,16.64
2017-05-29T01:08:54.131Z,16.22
2017-05-29T01:11:22.454Z,16.34
2017-05-29T01:13:50.956Z,14.74
2017-05-29T01:16:19.329Z,13.76
2017-05-29T01:18:47.660Z,15.64
2017-05-29T01:21:16.017Z,12.94
2017-05-29T01:23:44.308Z,11.48
2017-05-29T01:26:12.720Z,12.14
2017-05-29T01:28:41.153Z,11.40
2017-05-29T01:31:09.523Z,11.08
2017-05-29T01:33:37.833Z,12.66
2017-05-29T01:36:06.124Z,12.46
2017-05-29T01:38:34.669Z,12.50
2017-05-29T01:41:02.953Z,10.70
2017-05-29T01:43:31.321Z,11.70
2017-05-29T01:45:59.627Z,11.98
2017-05-29T01:48:27.980Z,10.82
2017-05-29T01:50:56.308Z,11.04
2017-05-29T01:53:24.612Z,10.60
2017-05-29T01:55:52.903Z,10.80
2017-05-29T01:58:21.293Z,11.50
2017-05-29T02:00:49.575Z,12.96
2017-05-29T02:03:17.946Z,12.64
2017-05-29T02:05:46.324Z,14.46
2017-05-29T02:08:14.641Z,13.50
2017-05-29T02:10:42.982Z,14.98
2017-05-29T02:13:11.293Z,13.72
2017-05-29T02:15:39.611Z,11.82
2017-05-29T02:18:08.012Z,13.96
2017-05-29T02:20:36.319Z,15.62
2017-05-29T02:23:04.604Z,14.58
2017-05-29T02:25:32.949Z,15.30
2017-05-29T02:28:01.236Z,13.58
2017-05-29T02:30:29.602Z,15.26
2017-05-29T02:32:57.968Z,17.04
2017-05-29T02:35:26.364Z,17.10
2017-05-29T02:37:54.740Z,16.02
2017-05-29T02:40:23.148Z,19.18
2017-05-29T02:42:51.508Z,17.42
2017-05-29T02:45:19.792Z,21.26
2017-05-29T02:47:48.258Z,21.38
2017-05-29T02:50:16.542Z,21.40
2017-05-29T02:52:44.820Z,23.84
2017-05-29T02:55:13.500Z,27.14
2017-05-29T02:57:41.785Z,26.64
2017-05-29T03:00:10.073Z,25.54
2017-05-29T03:02:38.434Z,28.86
2017-05-29T03:05:06.812Z,30.58
2017-05-29T03:07:35.192Z,29.58
2017-05-29T03:10:03.672Z,30.28
2017-05-29T03:12:32.051Z,28.98
2017-05-29T03:15:00.331Z,27.74
2017-05-29T03:17:28.708Z,26.68
2017-05-29T03:19:57.097Z,22.78
2017-05-29T03:22:25.468Z,26.94
2017-05-29T03:24:53.845Z,28.82
2017-05-29T03:27:22.156Z,23.62
2017-05-29T03:29:50.508Z,33.98
2017-05-29T03:32:18.879Z,31.80
2017-05-29T03:34:47.266Z,30.44
2017-05-29T03:37:15.644Z,31.22
2017-05-29T03:39:43.956Z,27.02
2017-05-29T03:42:12.249Z,27.34
2017-05-29T03:44:40.552Z,25.44
2017-05-29T03:47:08.957Z,30.90
2017-05-29T03:49:38.143Z,29.66
2017-05-29T03:52:06.532Z,32.82
2017-05-29T03:54:34.840Z,33.32
2017-05-29T03:57:03.191Z,33.12
2017-05-29T03:59:31.564Z,34.64
2017-05-29T04:01:59.848Z,30.14
2017-05-29T04:04:28.330Z,30.30
2017-05-29T04:06:56.704Z,29.40
2017-05-29T04:09:25.011Z,29.02
2017-05-29T04:11:53.336Z,28.32
2017-05-29T04:14:21.615Z,27.76
2017-05-29T04:16:49.926Z,27.20
2017-05-29T04:19:18.397Z,23.72
2017-05-29T04:21:46.681Z,24.74
2017-05-29T04:24:15.054Z,26.00
2017-05-29T04:26:43.372Z,27.58
2017-05-29T04:29:11.679Z,23.42
2017-05-29T04:31:39.959Z,23.30
2017-05-29T04:34:08.463Z,27.58
2017-05-29T04:36:36.846Z,25.74
2017-05-29T04:39:05.224Z,26.90
2017-05-29T04:41:33.532Z,25.30
2017-05-29T04:44:01.885Z,26.58
2017-05-29T04:46:30.268Z,26.36
2017-05-29T04:48:58.648Z,25.48
2017-05-29T04:51:27.029Z,24.72
2017-05-29T04:53:55.403Z,26.02
2017-05-29T04:56:23.724Z,24.16
2017-05-29T04:58:52.044Z,25.22
2017-05-29T05:01:20.325Z,26.50
2017-05-29T05:03:47.861Z,20.06
2017-05-29T05:06:16.147Z,25.82
2017-05-29T05:08:44.641Z,22.40
2017-05-29T05:11:12.923Z,25.96
2017-05-29T05:13:41.208Z,25.16
2017-05-29T05:16:09.571Z,24.14
2017-05-29T05:18:37.951Z,24.52
2017-05-29T05:21:06.336Z,24.54
2017-05-29T05:23:34.640Z,25.30
2017-05-29T05:26:02.920Z,23.84
2017-05-29T05:28:31.208Z,25.34
2017-05-29T05:30:59.649Z,24.36
2017-05-29T05:33:28.129Z,23.70
2017-05-29T05:35:56.504Z,25.86
2017-05-29T05:38:25.093Z,23.52
2017-05-29T05:40:53.376Z,23.16
2017-05-29T05:43:21.743Z,21.84
2017-05-29T05:45:50.129Z,21.88
2017-05-29T05:48:18.505Z,22.12
2017-05-29T05:50:46.788Z,20.18
2017-05-29T05:53:15.094Z,20.70
2017-05-29T05:55:43.403Z,21.86
2017-05-29T05:58:11.695Z,18.94
2017-05-29T06:00:40.023Z,18.38
2017-05-29T06:03:08.312Z,19.04
2017-05-29T06:05:36.596Z,20.00
2017-05-29T06:08:05.357Z,17.78
2017-05-29T06:10:33.649Z,19.76
2017-05-29T06:13:01.927Z,18.58
2017-05-29T06:15:30.256Z,17.14
2017-05-29T06:17:58.733Z,14.98
2017-05-29T06:20:27.028Z,17.92
2017-05-29T06:22:55.356Z,17.78
2017-05-29T06:25:23.642Z,19.36
2017-05-29T06:27:52.039Z,17.54
2017-05-29T06:30:20.420Z,18.40
2017-05-29T06:32:48.796Z,17.68
2017-05-29T06:35:17.383Z,18.78
2017-05-29T06:37:45.669Z,19.02
2017-05-29T06:40:14.039Z,15.18
2017-05-29T06:42:42.419Z,16.68
2017-05-29T06:45:10.712Z,16.70
2017-05-29T06:47:39.135Z,15.00
2017-05-29T06:50:07.420Z,16.72
2017-05-29T06:52:35.704Z,16.16
2017-05-29T06:55:04.013Z,14.22
2017-05-29T06:57:32.297Z,16.08
2017-05-29T07:00:00.615Z,18.98
2017-05-29T07:02:28.900Z,14.00
2017-05-29T07:04:57.273Z,14.22
2017-05-29T07:07:25.660Z,13.36
2017-05-29T07:09:54.032Z,14.62
2017-05-29T07:12:22.421Z,14.72
2017-05-29T07:14:50.788Z,13.90
2017-05-29T07:17:19.172Z,12.96
2017-05-29T07:19:47.465Z,13.32
2017-05-29T07:22:15.756Z,13.90
2017-05-29T07:24:44.068Z,12.78
2017-05-29T07:27:12.348Z,13.76
2017-05-29T07:29:40.635Z,13.36
2017-05-29T07:32:08.948Z,14.00
2017-05-29T07:34:37.315Z,13.98
2017-05-29T07:37:05.799Z,13.44
2017-05-29T07:39:34.129Z,17.80
2017-05-29T07:42:02.411Z,15.12
2017-05-29T07:44:30.733Z,13.62
2017-05-29T07:46:59.147Z,12.94
2017-05-29T07:49:27.488Z,11.86
2017-05-29T07:51:55.863Z,13.06
2017-05-29T07:54:24.188Z,12.64
2017-05-29T07:56:52.472Z,14.04
2017-05-29T07:59:20.755Z,12.36
2017-05-29T08:01:49.385Z,12.22
2017-05-29T08:04:17.671Z,12.64
2017-05-29T08:06:45.951Z,12.48
2017-05-29T08:09:14.318Z,11.24
2017-05-29T08:11:42.697Z,11.12
2017-05-29T08:14:11.072Z,13.38
2017-05-29T08:16:39.569Z,10.70
2017-05-29T08:19:07.843Z,10.88
2017-05-29T08:21:39.086Z,10.04
2017-05-29T08:24:07.367Z,10.42
2017-05-29T08:26:35.638Z,9.44
2017-05-29T08:29:03.956Z,9.62
2017-05-29T08:31:32.237Z,10.76
2017-05-29T08:34:00.523Z,10.08
2017-05-29T08:36:28.951Z,10.38
2017-05-29T08:38:57.324Z,10.38
2017-05-29T08:41:25.599Z,8.74
2017-05-29T08:43:53.894Z,9.36
2017-05-29T08:46:22.179Z,8.72
2017-05-29T08:48:50.492Z,9.62
2017-05-29T08:51:18.807Z,9.56
2017-05-29T08:53:47.135Z,9.44
2017-05-29T08:56:15.543Z,9.00
2017-05-29T08:58:43.828Z,10.30
2017-05-29T09:01:12.150Z,9.76
2017-05-29T09:03:39.787Z,10.48
2017-05-29T09:06:08.066Z,10.26
2017-05-29T09:08:36.376Z,9.80
2017-05-29T09:11:05.080Z,8.76
2017-05-29T09:13:33.385Z,8.54
2017-05-29T09:16:01.659Z,8.32
2017-05-29T09:18:30.067Z,17.24
2017-05-29T09:20:58.375Z,8.52
2017-05-29T09:23:26.651Z,9.96
2017-05-29T09:25:54.924Z,9.30
2017-05-29T09:28:23.252Z,9.42
2017-05-29T09:30:51.535Z,9.26
2017-05-29T09:33:19.839Z,8.50
2017-05-29T09:35:48.120Z,7.96
2017-05-29T09:38:16.423Z,9.42
2017-05-29T09:40:44.761Z,9.40
2017-05-29T09:43:13.033Z,9.44
2017-05-29T09:45:41.352Z,9.02
2017-05-29T09:48:09.687Z,9.94
2017-05-29T09:50:38.075Z,9.22
2017-05-29T09:53:06.452Z,9.78
2017-05-29T09:55:36.062Z,12.16
2017-05-29T09:58:04.347Z,9.76
2017-05-29T10:00:32.637Z,11.62
2017-05-29T10:03:01.200Z,10.40
2017-05-29T10:05:29.476Z,9.80
2017-05-29T10:07:57.757Z,8.90
2017-05-29T10:10:26.236Z,9.12
2017-05-29T10:12:54.508Z,8.02
2017-05-29T10:15:22.792Z,8.06
2017-05-29T10:17:51.107Z,8.32
2017-05-29T10:20:19.443Z,8.30
2017-05-29T10:22:47.727Z,9.30
2017-05-29T10:25:16.304Z,7.44
2017-05-29T10:27:44.588Z,6.56
2017-05-29T10:30:12.859Z,8.04
2017-05-29T10:32:41.162Z,7.56
2017-05-29T10:35:09.438Z,7.64
2017-05-29T10:37:37.845Z,8.08
2017-05-29T10:40:06.178Z,7.14
2017-05-29T10:42:34.459Z,6.82
2017-05-29T10:45:02.823Z,6.84
2017-05-29T10:47:31.303Z,6.48
2017-05-29T10:49:59.689Z,6.08
2017-05-29T10:52:27.966Z,5.86
2017-05-29T10:54:56.507Z,6.82
2017-05-29T10:57:24.832Z,5.90
2017-05-29T10:59:53.103Z,5.32
2017-05-29T11:02:21.409Z,6.30
2017-05-29T11:04:49.680Z,5.72
2017-05-29T11:07:17.961Z,5.92
2017-05-29T11:09:46.295Z,6.70
2017-05-29T11:12:14.573Z,6.92
2017-05-29T11:14:42.843Z,5.70
2017-05-29T11:17:11.147Z,6.78
2017-05-29T11:19:39.460Z,6.26
2017-05-29T11:22:07.736Z,6.18
2017-05-29T11:24:36.021Z,6.64
2017-05-29T11:27:04.347Z,7.50
2017-05-29T11:29:32.661Z,6.16
2017-05-29T11:32:00.969Z,5.96
2017-05-29T11:34:29.302Z,5.58
2017-05-29T11:36:57.614Z,5.24
2017-05-29T11:39:25.906Z,7.00
2017-05-29T11:41:54.797Z,6.22
2017-05-29T11:44:23.080Z,5.48
2017-05-29T11:46:51.360Z,5.42
2017-05-29T11:49:19.673Z,5.58
2017-05-29T11:51:47.952Z,5.20
2017-05-29T11:54:16.228Z,5.70
2017-05-29T11:56:44.532Z,4.96
2017-05-29T11:59:12.847Z,4.56
2017-05-29T12:01:41.124Z,5.20
2017-05-29T12:04:09.396Z,5.04
2017-05-29T12:06:37.914Z,4.86
2017-05-29T12:09:06.188Z,4.70
2017-05-29T12:11:34.469Z,6.16
2017-05-29T12:14:02.779Z,4.76
2017-05-29T12:16:31.052Z,5.00
2017-05-29T12:18:59.640Z,4.48
2017-05-29T12:21:27.915Z,4.78
2017-05-29T12:23:56.188Z,4.90
2017-05-29T12:26:24.487Z,5.50
2017-05-29T12:28:52.754Z,5.42
2017-05-29T12:31:21.322Z,5.18
2017-05-29T12:33:49.625Z,5.22
2017-05-29T12:36:17.908Z,5.54
2017-05-29T12:38:45.447Z,5.74
2017-05-29T12:41:13.760Z,6.22
2017-05-29T12:43:42.032Z,5.34
2017-05-29T12:46:11.280Z,4.64
2017-05-29T12:48:39.683Z,5.26
2017-05-29T12:51:07.968Z,5.54
2017-05-29T12:53:36.255Z,5.46
2017-05-29T12:56:04.605Z,5.50
2017-05-29T12:58:32.884Z,5.70
2017-05-29T13:01:01.164Z,6.32
2017-05-29T13:03:29.463Z,7.50
2017-05-29T13:05:57.762Z,6.12
2017-05-29T13:08:26.035Z,5.60
2017-05-29T13:10:54.331Z,5.62
2017-05-29T13:13:22.690Z,6.68
2017-05-29T13:15:51.071Z,5.38
2017-05-29T13:18:19.769Z,6.46
2017-05-29T13:20:48.142Z,6.42
2017-05-29T13:23:16.516Z,6.64
2017-05-29T13:25:45.175Z,6.70
2017-05-29T13:28:13.480Z,5.90
2017-05-29T13:30:41.804Z,5.74
2017-05-29T13:33:10.161Z,5.70
2017-05-29T13:35:38.528Z,5.44
2017-05-29T13:38:06.849Z,5.46
2017-05-29T13:40:35.392Z,6.48
2017-05-29T13:43:03.693Z,5.66
2017-05-29T13:45:32.029Z,6.10
2017-05-29T13:48:00.338Z,5.96
2017-05-29T13:50:28.896Z,6.04
2017-05-29T13:52:57.281Z,6.94
2017-05-29T13:55:25.658Z,6.12
2017-05-29T13:57:54.032Z,7.22
2017-05-29T14:00:22.416Z,6.46
2017-05-29T14:02:50.791Z,6.32
2017-05-29T14:05:19.103Z,5.94
2017-05-29T14:07:47.384Z,5.50
2017-05-29T14:10:15.705Z,7.36
2017-05-29T14:12:43.977Z,5.18
2017-05-29T14:15:12.258Z,6.42
2017-05-29T14:17:40.780Z,5.80
2017-05-29T14:20:09.056Z,8.10
2017-05-29T14:22:37.406Z,6.40
2017-05-29T14:25:05.688Z,5.12
2017-05-29T14:27:33.969Z,5.64
2017-05-29T14:30:02.276Z,5.02
2017-05-29T14:32:30.592Z,4.02
2017-05-29T14:34:58.869Z,3.82
2017-05-29T14:37:27.224Z,4.74
2017-05-29T14:39:55.609Z,7.16
2017-05-29T14:42:23.984Z,4.28
2017-05-29T14:44:52.288Z,4.02
2017-05-29T14:47:19.800Z,4.80
2017-05-29T14:49:48.212Z,3.90
2017-05-29T14:52:16.488Z,4.14
2017-05-29T14:54:44.763Z,3.72
2017-05-29T14:57:13.241Z,4.26
2017-05-29T14:59:41.660Z,4.86
2017-05-29T15:02:09.999Z,4.52
2017-05-29T15:04:38.295Z,4.18
2017-05-29T15:07:06.655Z,5.02
2017-05-29T15:09:34.958Z,4.88
2017-05-29T15:12:03.472Z,4.08
2017-05-29T15:14:31.792Z,4.86
2017-05-29T15:17:00.076Z,4.98
2017-05-29T15:19:28.420Z,4.14
2017-05-29T15:21:56.720Z,4.30
2017-05-29T15:24:24.258Z,4.18
2017-05-29T15:26:52.877Z,4.38
2017-05-29T15:29:21.164Z,4.28
2017-05-29T15:31:49.567Z,4.20
2017-05-29T15:34:18.009Z,4.38
2017-05-29T15:36:46.383Z,4.40
2017-05-29T15:39:14.660Z,5.56
2017-05-29T15:41:43.152Z,5.40
2017-05-29T15:44:11.532Z,4.84
2017-05-29T15:46:39.908Z,5.54
2017-05-29T15:49:08.384Z,4.64
2017-05-29T15:51:36.763Z,4.84
2017-05-29T15:54:05.049Z,4.78
2017-05-29T15:56:33.419Z,4.52
2017-05-29T15:59:01.696Z,4.44
2017-05-29T16:01:29.969Z,5.02
2017-05-29T16:03:58.974Z,4.62
2017-05-29T16:06:27.243Z,5.10
2017-05-29T16:08:55.524Z,4.50
2017-05-29T16:11:24.472Z,3.92
2017-05-29T16:13:52.748Z,5.00
2017-05-29T16:16:21.019Z,5.32
2017-05-29T16:18:49.551Z,4.48
2017-05-29T16:21:17.822Z,4.10
2017-05-29T16:23:46.093Z,4.56
2017-05-29T16:26:14.415Z,4.58
2017-05-29T16:28:42.682Z,3.94
2017-05-29T16:31:11.060Z,4.12
2017-05-29T16:33:39.740Z,4.34
2017-05-29T16:36:08.020Z,4.38
2017-05-29T16:38:36.297Z,4.32
2017-05-29T16:41:04.596Z,3.80
2017-05-29T16:43:33.056Z,4.56
2017-05-29T16:46:01.332Z,4.96
2017-05-29T16:48:29.600Z,4.70
2017-05-29T16:50:57.894Z,4.64
2017-05-29T16:53:26.159Z,5.34
2017-05-29T16:55:54.452Z,4.48
2017-05-29T16:58:22.848Z,4.84
2017-05-29T17:00:51.123Z,4.80
2017-05-29T17:03:19.391Z,5.28
2017-05-29T17:05:47.243Z,5.02
2017-05-29T17:08:15.508Z,4.80
2017-05-29T17:10:43.784Z,4.80
2017-05-29T17:13:12.096Z,5.28
2017-05-29T17:15:40.372Z,4.84
2017-05-29T17:18:08.644Z,4.82
2017-05-29T17:20:36.960Z,4.76
2017-05-29T17:23:05.236Z,6.74
2017-05-29T17:25:33.512Z,5.10
2017-05-29T17:28:01.829Z,5.20
2017-05-29T17:30:30.172Z,5.10
2017-05-29T17:32:58.452Z,5.30
2017-05-29T17:35:26.729Z,5.08
2017-05-29T17:37:55.044Z,5.98
2017-05-29T17:40:23.324Z,6.78
2017-05-29T17:42:51.600Z,5.88
2017-05-29T17:45:19.943Z,5.78
2017-05-29T17:47:48.252Z,5.54
2017-05-29T17:50:16.536Z,5.96
2017-05-29T17:52:44.926Z,8.84
2017-05-29T17:55:13.240Z,5.84
2017-05-29T17:57:41.573Z,5.60
2017-05-29T18:00:09.849Z,6.70
2017-05-29T18:02:38.162Z,6.10
2017-05-29T18:05:06.568Z,6.44
2017-05-29T18:07:35.143Z,6.46
2017-05-29T18:10:03.415Z,7.02
2017-05-29T18:12:31.688Z,6.88
2017-05-29T18:14:59.984Z,5.92
2017-05-29T18:17:28.266Z,6.40
2017-05-29T18:19:56.639Z,6.06
2017-05-29T18:22:24.917Z,6.42
2017-05-29T18:24:53.396Z,5.98
2017-05-29T18:27:21.868Z,6.08
2017-05-29T18:29:50.256Z,6.90
2017-05-29T18:32:18.640Z,6.80
2017-05-29T18:34:47.008Z,6.44
2017-05-29T18:37:15.391Z,7.28
2017-05-29T18:39:43.772Z,7.00
2017-05-29T18:42:12.147Z,6.26
2017-05-29T18:44:40.521Z,7.94
2017-05-29T18:47:08.865Z,6.92
2017-05-29T18:49:37.135Z,7.10
2017-05-29T18:52:05.860Z,9.46
2017-05-29T18:54:34.246Z,7.92
2017-05-29T18:57:02.535Z,8.14
2017-05-29T18:59:30.845Z,7.60
2017-05-29T19:01:59.160Z,7.18
2017-05-29T19:04:27.566Z,7.66
2017-05-29T19:06:55.849Z,8.50
2017-05-29T19:09:24.164Z,8.60
2017-05-29T19:11:52.545Z,9.06
2017-05-29T19:14:20.828Z,10.38
2017-05-29T19:16:49.307Z,13.64
2017-05-29T19:19:17.638Z,12.20
2017-05-29T19:21:45.941Z,10.30
2017-05-29T19:24:14.228Z,10.74
2017-05-29T19:26:42.535Z,11.18
2017-05-29T19:29:10.844Z,10.98
2017-05-29T19:31:39.140Z,12.72
2017-05-29T19:34:07.611Z,10.00
2017-05-29T19:36:35.940Z,11.10
2017-05-29T19:39:04.224Z,11.40
2017-05-29T19:41:32.800Z,10.94
2017-05-29T19:44:01.081Z,10.86
2017-05-29T19:46:29.416Z,10.36
2017-05-29T19:48:57.744Z,11.46
2017-05-29T19:51:26.030Z,11.70
2017-05-29T19:53:54.311Z,11.34
2017-05-29T19:56:22.760Z,10.50
2017-05-29T19:58:51.044Z,12.32
2017-05-29T20:01:19.340Z,9.94
2017-05-29T20:03:47.659Z,10.62
2017-05-29T20:06:16.027Z,11.40
2017-05-29T20:08:44.352Z,13.50
2017-05-29T20:11:12.639Z,13.06
2017-05-29T20:13:41.007Z,12.58
2017-05-29T20:16:09.404Z,12.46
2017-05-29T20:18:37.716Z,11.20
2017-05-29T20:21:06.481Z,12.92
2017-05-29T20:23:34.791Z,12.48
2017-05-29T20:26:03.072Z,12.28
2017-05-29T20:28:31.481Z,13.94
2017-05-29T20:30:59.761Z,18.82
2017-05-29T20:33:28.044Z,13.02
2017-05-29T20:35:56.349Z,12.54
2017-05-29T20:38:24.652Z,12.38
2017-05-29T20:40:52.931Z,13.92
2017-05-29T20:43:21.212Z,13.06
2017-05-29T20:45:49.520Z,12.82
2017-05-29T20:48:17.900Z,13.56
2017-05-29T20:50:46.280Z,13.28
2017-05-29T20:53:14.660Z,13.76
2017-05-29T20:55:42.992Z,13.16
2017-05-29T20:58:11.318Z,12.92
2017-05-29T21:00:39.691Z,15.30
2017-05-29T21:03:08.072Z,12.38
2017-05-29T21:05:36.364Z,12.76
2017-05-29T21:08:04.727Z,14.44
2017-05-29T21:10:33.219Z,14.88
2017-05-29T21:13:01.592Z,16.48
2017-05-29T21:15:29.256Z,14.18
2017-05-29T21:17:57.536Z,16.30
2017-05-29T21:20:25.844Z,15.74
2017-05-29T21:22:54.391Z,17.58
2017-05-29T21:25:22.673Z,15.90
2017-05-29T21:27:51.057Z,16.94
2017-05-29T21:30:19.429Z,15.82
2017-05-29T21:32:47.710Z,17.20
2017-05-29T21:35:16.085Z,20.50
2017-05-29T21:37:44.465Z,22.12
2017-05-29T21:40:12.771Z,21.92
2017-05-29T21:42:41.051Z,18.36
2017-05-29T21:45:09.395Z,17.36
2017-05-29T21:47:37.679Z,16.84
2017-05-29T21:50:06.263Z,17.18
2017-05-29T21:52:34.688Z,16.08
2017-05-29T21:55:03.227Z,17.60
2017-05-29T21:57:31.812Z,18.72
2017-05-29T22:00:00.213Z,16.02
2017-05-29T22:02:28.591Z,18.42
2017-05-29T22:04:57.175Z,18.00
2017-05-29T22:07:25.460Z,16.02
2017-05-29T22:09:53.826Z,16.98
2017-05-29T22:12:22.151Z,18.60
2017-05-29T22:14:50.567Z,16.22
2017-05-29T22:17:18.948Z,18.42
2017-05-29T22:19:47.332Z,18.10
2017-05-29T22:22:15.616Z,18.16
2017-05-29T22:24:43.986Z,19.64
2017-05-29T22:27:12.361Z,19.78
2017-05-29T22:29:40.688Z,22.88
2017-05-29T22:32:09.041Z,21.80
2017-05-29T22:34:37.409Z,26.70
2017-05-29T22:37:05.781Z,22.14
2017-05-29T22:39:34.256Z,24.18
2017-05-29T22:42:02.605Z,22.36
2017-05-29T22:44:30.889Z,24.46
2017-05-29T22:46:59.265Z,24.64
2017-05-29T22:49:27.641Z,25.34
2017-05-29T22:51:56.016Z,26.60
2017-05-29T22:54:24.391Z,28.12
2017-05-29T22:56:52.875Z,27.92
2017-05-29T22:59:21.163Z,29.56
2017-05-29T23:01:49.640Z,30.42
2017-05-29T23:04:18.017Z,33.16
2017-05-29T23:06:46.306Z,37.62
2017-05-29T23:09:14.669Z,32.42
2017-05-29T23:11:42.954Z,33.86
2017-05-29T23:14:11.242Z,32.48
2017-05-29T23:16:39.563Z,31.08
2017-05-29T23:19:07.885Z,31.82
2017-05-29T23:21:36.257Z,31.12
2017-05-29T23:24:04.584Z,31.16
2017-05-29T23:26:32.916Z,28.74
2017-05-29T23:29:01.211Z,31.02
2017-05-29T23:31:29.532Z,29.44
2017-05-29T23:33:57.815Z,30.78
2017-05-29T23:36:26.104Z,30.54
2017-05-29T23:38:54.409Z,32.56
2017-05-29T23:41:22.721Z,29.72
2017-05-29T23:43:51.065Z,30.66
2017-05-29T23:46:19.436Z,30.22
2017-05-29T23:48:47.720Z,31.74
2017-05-29T23:51:16.196Z,31.62
2017-05-29T23:53:44.525Z,31.26
2017-05-29T23:56:13.166Z,27.52
2017-05-29T23:58:41.451Z,30.92
